Time;durP1;ratioP1;P1;durP2;ratioP2;P2;SDS_P1;SDS_P2;PMS_P1;PMS_P2;Temp;Humidity;BMP_temperature;BMP_pressure;BME280_temperature;BME280_humidity;BME280_pressure;Samples;Min_cycle;Max_cycle;Signal;HPM_P1;HPM_P2
2023/01/28 00:00:51;;;;;;;6.70;3.50;;;;;;;-0.54;91.25;99827.25;5024730;28;20508;-80
2023/01/28 00:03:17;;;;;;;16.25;4.22;;;;;;;-0.66;91.51;99822.41;5007921;28;20486;-80
2023/01/28 00:05:43;;;;;;;8.45;3.17;;;;;;;-1.08;91.77;99824.84;5006068;28;20025;-80
2023/01/28 00:08:09;;;;;;;7.70;3.42;;;;;;;-0.87;92.16;99818.31;5003220;28;20037;-80
2023/01/28 00:10:38;;;;;;;8.40;3.83;;;;;;;-0.74;91.72;99815.28;5026407;28;20033;-81
2023/01/28 00:13:04;;;;;;;7.10;3.60;;;;;;;-1.12;91.38;99813.03;5009634;28;20074;-79
2023/01/28 00:15:29;;;;;;;7.03;3.38;;;;;;;-0.96;92.91;99823.66;4987590;28;20441;-80
2023/01/28 00:17:55;;;;;;;7.57;3.20;;;;;;;-0.96;91.93;99823.66;5026202;28;20412;-80
2023/01/28 00:20:20;;;;;;;5.00;2.97;;;;;;;-1.39;90.89;99823.56;5005719;28;20036;-79
2023/01/28 00:22:47;;;;;;;8.93;3.22;;;;;;;-0.62;92.89;99821.13;5023321;28;20044;-80
2023/01/28 00:25:13;;;;;;;7.68;3.83;;;;;;;-0.72;90.52;99817.78;5021645;28;20025;-80
2023/01/28 00:27:39;;;;;;;12.98;3.45;;;;;;;-1.28;90.84;99808.47;4987326;28;21500;-80
2023/01/28 00:30:06;;;;;;;8.38;3.35;;;;;;;-1.57;91.33;99787.72;4991605;28;20061;-79
2023/01/28 00:32:31;;;;;;;9.23;3.00;;;;;;;-1.51;92.02;99809.88;5003297;28;20021;-81
2023/01/28 00:34:56;;;;;;;7.30;2.97;;;;;;;-1.31;91.97;99811.38;5026388;28;20072;-80
2023/01/28 00:37:22;;;;;;;10.98;3.50;;;;;;;-1.15;91.55;99818.56;4983070;28;20462;-80
2023/01/28 00:39:48;;;;;;;8.07;3.50;;;;;;;-0.60;91.41;99809.50;5028581;28;20029;-80
2023/01/28 00:42:13;;;;;;;7.13;2.72;;;;;;;-1.26;91.78;99816.16;5028630;28;20060;-80
2023/01/28 00:44:39;;;;;;;5.35;3.00;;;;;;;-1.51;91.94;99810.69;5011375;28;20128;-81
2023/01/28 00:47:04;;;;;;;4.93;3.33;;;;;;;-1.40;91.35;99796.59;4994383;28;20393;-80
2023/01/28 00:49:30;;;;;;;11.43;3.08;;;;;;;-0.88;91.57;99800.13;4979534;28;20121;-80
2023/01/28 00:51:55;;;;;;;7.90;3.20;;;;;;;-0.80;91.32;99819.38;4998476;28;20033;-80
2023/01/28 00:54:21;;;;;;;6.35;2.83;;;;;;;-1.45;90.41;99805.84;5030072;28;20397;-80
2023/01/28 00:56:46;;;;;;;8.18;3.25;;;;;;;-1.22;91.52;99812.31;4993335;28;20508;-80
2023/01/28 00:59:12;;;;;;;6.40;2.95;;;;;;;-1.11;89.73;99804.19;5006773;28;20053;-80
2023/01/28 01:01:38;;;;;;;6.05;2.78;;;;;;;-0.89;90.91;99793.25;5026351;28;20025;-80
2023/01/28 01:04:03;;;;;;;4.50;2.63;;;;;;;-0.93;88.59;99797.16;4989439;28;20033;-80
2023/01/28 01:06:34;;;;;;;7.18;2.85;;;;;;;-1.59;89.24;99801.94;4989378;28;20040;-80
2023/01/28 01:09:00;;;;;;;8.18;2.88;;;;;;;-1.64;91.01;99817.28;5027742;28;20036;-79
2023/01/28 01:11:26;;;;;;;4.25;2.33;;;;;;;-1.44;90.76;99818.78;5007105;28;20535;-80
2023/01/28 01:13:56;;;;;;;5.53;2.85;;;;;;;-1.06;92.22;99828.16;4995529;28;20033;-80
2023/01/28 01:16:24;;;;;;;7.93;2.83;;;;;;;-1.77;91.38;99819.41;5010700;28;20457;-79
2023/01/28 01:18:51;;;;;;;6.32;2.72;;;;;;;-1.82;91.56;99824.25;5009909;28;20028;-79
2023/01/28 01:21:19;;;;;;;8.88;3.05;;;;;;;-1.58;91.77;99829.75;5023304;28;20104;-80
2023/01/28 01:23:45;;;;;;;5.53;2.47;;;;;;;-1.86;91.23;99813.28;5022275;28;20033;-80
2023/01/28 01:26:11;;;;;;;12.57;3.05;;;;;;;-1.87;92.13;99826.47;5027035;28;20036;-79
2023/01/28 01:28:37;;;;;;;11.10;2.95;;;;;;;-1.64;91.35;99827.75;5025735;28;20485;-80
2023/01/28 01:31:05;;;;;;;7.78;3.15;;;;;;;-1.92;90.83;99820.88;5009669;28;20505;-79
2023/01/28 01:33:30;;;;;;;6.80;3.08;;;;;;;-1.90;91.38;99826.78;5009085;28;20053;-80
2023/01/28 01:35:57;;;;;;;9.30;2.92;;;;;;;-1.95;91.45;99827.22;5004885;28;20466;-79
2023/01/28 01:38:22;;;;;;;8.20;2.78;;;;;;;-1.82;92.96;99839.94;5029019;28;20045;-80
2023/01/28 01:40:48;;;;;;;6.50;2.40;;;;;;;-1.31;91.58;99826.28;5030547;28;20051;-79
2023/01/28 01:43:21;;;;;;;8.15;3.30;;;;;;;-1.31;90.06;99840.19;4976356;28;21378;-80
2023/01/28 01:45:52;;;;;;;6.88;3.08;;;;;;;-1.53;91.05;99849.28;5012718;28;20127;-79
2023/01/28 01:48:22;;;;;;;6.07;3.10;;;;;;;-1.58;91.45;99856.78;5007120;28;20083;-80
2023/01/28 01:50:57;;;;;;;7.13;3.00;;;;;;;-1.95;91.28;99839.47;5011438;28;20060;-79
2023/01/28 01:53:25;;;;;;;8.35;3.13;;;;;;;-2.03;92.63;99848.03;5027150;28;20449;-79
2023/01/28 01:55:54;;;;;;;7.38;3.17;;;;;;;-2.11;92.55;99850.53;5013088;28;20022;-79
2023/01/28 01:58:24;;;;;;;2.92;2.15;;;;;;;-1.86;92.79;99846.44;5027138;28;20075;-80
2023/01/28 02:00:50;;;;;;;9.57;3.92;;;;;;;-1.80;92.04;99841.47;5027235;28;20033;-79
2023/01/28 02:03:21;;;;;;;3.78;2.70;;;;;;;-1.66;91.24;99842.78;5029427;28;20033;-78
2023/01/28 02:05:49;;;;;;;8.18;2.70;;;;;;;-1.75;91.70;99831.34;5009292;28;20125;-79
2023/01/28 02:08:20;;;;;;;5.38;2.55;;;;;;;-1.77;90.89;99833.31;5023192;28;20033;-79
2023/01/28 02:10:53;;;;;;;6.50;3.25;;;;;;;-1.59;92.51;99843.81;4994512;28;20285;-79
2023/01/28 02:13:24;;;;;;;15.20;4.90;;;;;;;-1.81;90.48;99837.19;5026189;28;20151;-79
2023/01/28 02:15:50;;;;;;;4.22;2.90;;;;;;;-1.62;91.92;99846.75;5024331;28;20509;-79
2023/01/28 02:18:16;;;;;;;4.22;2.83;;;;;;;-1.64;90.21;99846.88;5023623;28;20033;-81
2023/01/28 02:21:18;;;;;;;5.00;2.53;;;;;;;-1.37;91.21;99847.81;5006123;28;20032;-79
2023/01/28 02:24:00;;;;;;;9.07;3.60;;;;;;;-1.77;90.72;99854.22;5023575;28;20496;-80
2023/01/28 02:26:48;;;;;;;5.05;3.00;;;;;;;-1.73;90.62;99849.56;5026368;28;20083;-79
2023/01/28 02:29:28;;;;;;;7.03;3.38;;;;;;;-1.00;90.06;99856.34;5025862;28;20158;-80
2023/01/28 02:32:08;;;;;;;3.80;3.22;;;;;;;-1.53;89.52;99851.09;5022526;28;20040;-80
2023/01/28 02:34:51;;;;;;;3.70;2.72;;;;;;;-1.87;90.30;99858.69;5003475;28;20017;-79
2023/01/28 02:37:23;;;;;;;3.80;2.42;;;;;;;-1.02;91.34;99840.78;5020446;28;20037;-80
2023/01/28 02:39:56;;;;;;;3.88;2.53;;;;;;;-1.63;90.31;99861.59;5020529;28;20109;-79
2023/01/28 02:42:31;;;;;;;9.95;2.33;;;;;;;-1.48;90.28;99866.34;5027252;28;20029;-79
2023/01/28 02:44:56;;;;;;;6.85;3.25;;;;;;;-1.51;89.92;99864.88;5026855;28;20503;-79
2023/01/28 02:50:13;;;;;;;6.78;2.92;;;;;;;-1.35;89.55;99865.00;5026835;28;20151;-79
2023/01/28 02:56:12;;;;;;;4.93;2.75;;;;;;;-1.07;88.62;99866.59;5023740;28;20148;-79
2023/01/28 02:58:46;;;;;;;9.07;2.40;;;;;;;-1.40;88.49;99862.03;5024865;28;20444;-78
2023/01/28 03:01:25;;;;;;;9.13;3.65;;;;;;;-1.05;89.72;99871.72;5025429;28;20388;-78
2023/01/28 03:03:58;;;;;;;9.27;2.63;;;;;;;-1.28;88.70;99875.72;5006727;28;20120;-79
2023/01/28 03:06:31;;;;;;;11.55;3.35;;;;;;;-1.11;89.02;99869.66;5000954;28;20169;-80
2023/01/28 03:38:53;;;;;;;8.52;3.03;;;;;;;-1.22;87.95;99880.38;5022999;28;20028;-79
2023/01/28 03:41:24;;;;;;;5.57;2.53;;;;;;;-0.86;88.97;99888.09;5008011;28;20045;-80
2023/01/28 03:43:50;;;;;;;5.88;2.45;;;;;;;-0.75;87.51;99889.66;5027750;28;20041;-79
2023/01/28 03:46:17;;;;;;;3.58;2.03;;;;;;;-1.25;87.85;99884.13;5010850;28;20308;-79
2023/01/28 03:48:43;;;;;;;12.15;2.65;;;;;;;-1.38;88.59;99891.50;5029878;28;20103;-79
2023/01/28 03:51:08;;;;;;;5.32;2.85;;;;;;;-1.08;89.92;99896.41;5009216;28;20120;-79
2023/01/28 03:53:34;;;;;;;4.97;2.70;;;;;;;-0.75;89.24;99894.91;5022219;28;20499;-79
2023/01/28 03:55:59;;;;;;;2.78;2.10;;;;;;;-0.79;87.07;99883.88;5009978;28;20061;-80
2023/01/28 03:58:26;;;;;;;5.97;2.47;;;;;;;-1.35;88.24;99896.44;4992602;28;20044;-79
2023/01/28 04:00:52;;;;;;;8.05;2.78;;;;;;;-0.69;88.97;99886.44;5024634;28;20036;-79
2023/01/28 04:03:19;;;;;;;7.50;2.45;;;;;;;-0.70;88.66;99890.06;5025897;28;20057;-79
2023/01/28 04:05:58;;;;;;;6.10;2.33;;;;;;;-0.96;87.40;99873.44;5024321;28;20083;-79
2023/01/28 04:08:23;;;;;;;4.43;2.30;;;;;;;-0.94;88.37;99884.59;5024067;28;20044;-80
2023/01/28 04:10:49;;;;;;;3.47;2.00;;;;;;;-1.04;88.16;99878.59;5007476;28;20469;-79
2023/01/28 04:13:15;;;;;;;4.65;2.45;;;;;;;-0.72;88.43;99884.09;5003566;28;20026;-79
2023/01/28 04:15:42;;;;;;;5.40;2.95;;;;;;;-0.71;87.65;99890.19;4987316;28;20076;-79
2023/01/28 04:18:07;;;;;;;6.53;2.65;;;;;;;-0.41;87.54;99885.34;5023951;28;20029;-79
2023/01/28 04:20:33;;;;;;;7.13;2.45;;;;;;;-0.55;87.73;99879.84;5005429;28;20440;-79
2023/01/28 04:22:59;;;;;;;4.40;2.70;;;;;;;-1.03;86.89;99888.94;4995035;28;20546;-79
2023/01/28 04:25:24;;;;;;;7.13;2.50;;;;;;;-0.58;88.08;99880.97;5022666;28;20029;-80
2023/01/28 04:27:49;;;;;;;4.95;3.22;;;;;;;-0.91;86.30;99887.72;5007036;28;20037;-79
2023/01/28 04:30:15;;;;;;;4.45;2.97;;;;;;;-1.40;87.79;99882.16;5003566;28;20405;-80
2023/01/28 04:32:40;;;;;;;6.10;2.97;;;;;;;-1.26;87.93;99879.00;5002217;28;20080;-79
2023/01/28 04:35:06;;;;;;;6.70;2.83;;;;;;;-0.56;89.38;99879.00;5022328;28;20060;-79
2023/01/28 04:37:31;;;;;;;9.10;3.10;;;;;;;-0.69;88.80;99885.59;5005028;28;20116;-79
2023/01/28 04:39:57;;;;;;;5.82;2.40;;;;;;;-1.03;89.07;99890.72;5024686;28;20116;-79
2023/01/28 04:42:22;;;;;;;13.70;3.78;;;;;;;-1.06;88.39;99880.53;4991774;28;20067;-79
2023/01/28 04:44:47;;;;;;;6.97;3.15;;;;;;;-0.68;87.69;99872.38;5004591;28;20064;-79
2023/01/28 04:47:13;;;;;;;6.03;4.63;;;;;;;-0.19;87.66;99886.63;5003929;28;20496;-79
2023/01/28 04:49:38;;;;;;;9.00;4.53;;;;;;;-1.41;84.08;99888.34;5005353;28;20050;-79
2023/01/28 04:52:04;;;;;;;7.40;4.03;;;;;;;-1.68;83.94;99883.94;5020985;28;20116;-79
2023/01/28 04:54:29;;;;;;;6.85;4.07;;;;;;;-1.72;83.99;99893.03;5006448;28;20284;-79
2023/01/28 04:56:55;;;;;;;8.45;3.72;;;;;;;-1.65;85.25;99902.81;5025776;28;20068;-79
2023/01/28 04:59:22;;;;;;;6.20;3.35;;;;;;;-1.43;85.22;99898.97;5021551;28;20033;-80
2023/01/28 05:01:48;;;;;;;10.35;4.80;;;;;;;-1.59;85.03;99894.38;5005884;28;20026;-79
2023/01/28 05:04:16;;;;;;;6.93;3.63;;;;;;;-1.04;85.97;99891.69;4982522;28;20053;-80
2023/01/28 05:06:41;;;;;;;7.13;4.53;;;;;;;-1.32;84.67;99900.56;4985483;28;20672;-79
2023/01/28 05:09:07;;;;;;;12.88;5.07;;;;;;;-0.71;86.95;99888.38;5007639;28;20033;-80
2023/01/28 05:11:32;;;;;;;13.95;5.00;;;;;;;-1.02;84.89;99908.06;4991267;28;20113;-80
2023/01/28 05:13:57;;;;;;;6.18;3.25;;;;;;;-1.69;82.29;99901.44;4987481;28;20294;-80
2023/01/28 05:16:23;;;;;;;5.88;4.22;;;;;;;-1.62;81.92;99899.09;5005653;28;20040;-80
2023/01/28 05:18:50;;;;;;;14.18;4.40;;;;;;;-1.64;81.63;99904.44;5025144;28;20481;-80
2023/01/28 05:21:16;;;;;;;7.00;3.90;;;;;;;-1.68;82.18;99899.63;4993856;28;20028;-79
2023/01/28 05:23:42;;;;;;;5.38;3.70;;;;;;;-1.75;83.94;99902.00;5027875;28;20037;-79
2023/01/28 05:26:07;;;;;;;9.32;5.18;;;;;;;-1.07;86.08;99908.50;5009735;28;20396;-80
2023/01/28 05:28:33;;;;;;;9.93;4.50;;;;;;;-1.29;82.86;99908.13;5024528;28;20044;-80
2023/01/28 05:31:03;;;;;;;11.35;4.75;;;;;;;-1.64;82.32;99904.44;5010834;28;20259;-80
2023/01/28 05:33:28;;;;;;;10.75;4.55;;;;;;;-1.48;83.92;99901.19;4995912;28;20129;-80
2023/01/28 05:35:54;;;;;;;6.10;4.43;;;;;;;-1.79;82.07;99897.22;4970039;28;20120;-79
2023/01/28 05:38:19;;;;;;;6.75;4.75;;;;;;;-1.57;82.54;99892.44;4991853;28;20037;-80
2023/01/28 05:40:46;;;;;;;10.63;4.80;;;;;;;-1.63;81.94;99906.09;5010679;28;20499;-80
2023/01/28 05:43:12;;;;;;;8.10;4.68;;;;;;;-1.69;82.34;99909.31;5005753;28;20041;-79
2023/01/28 05:45:37;;;;;;;6.50;3.95;;;;;;;-1.53;82.41;99912.09;5013008;28;20029;-79
2023/01/28 05:48:03;;;;;;;6.78;4.63;;;;;;;-1.40;82.40;99903.94;5026392;28;20025;-80
2023/01/28 05:50:28;;;;;;;6.38;3.55;;;;;;;-1.28;81.85;99907.16;5008785;28;20417;-79
2023/01/28 05:52:53;;;;;;;6.50;4.05;;;;;;;-1.28;82.67;99909.75;5006160;28;20041;-79
2023/01/28 05:55:19;;;;;;;5.53;4.07;;;;;;;-1.20;81.83;99909.88;5023378;28;20429;-79
2023/01/28 05:57:44;;;;;;;6.28;4.32;;;;;;;-0.98;83.29;99914.66;5030949;28;20532;-80
2023/01/28 06:00:10;;;;;;;6.15;4.47;;;;;;;-0.70;84.04;99902.31;4998745;28;20052;-80
2023/01/28 06:02:36;;;;;;;9.45;4.50;;;;;;;-0.68;81.57;99922.19;4972575;28;20033;-80
2023/01/28 06:05:01;;;;;;;9.68;4.90;;;;;;;-1.34;82.30;99918.22;5007112;28;20045;-80
2023/01/28 06:07:26;;;;;;;12.98;5.05;;;;;;;-1.84;82.94;99926.44;5001862;28;20037;-79
2023/01/28 06:09:52;;;;;;;7.65;4.97;;;;;;;-1.82;83.35;99924.50;5027172;28;20036;-81
2023/01/28 06:12:17;;;;;;;9.70;4.85;;;;;;;-0.84;85.22;99938.56;5025932;28;20030;-80
2023/01/28 06:14:42;;;;;;;5.72;3.90;;;;;;;-1.59;81.51;99936.25;5026259;28;20112;-79
2023/01/28 06:17:08;;;;;;;6.57;4.55;;;;;;;-1.64;81.58;99925.38;5007396;28;20083;-79
2023/01/28 06:19:33;;;;;;;9.07;5.05;;;;;;;-1.64;80.97;99920.13;5026529;28;20040;-79
2023/01/28 06:21:59;;;;;;;8.70;4.53;;;;;;;-1.79;80.04;99936.47;5008803;28;20603;-80
2023/01/28 06:24:24;;;;;;;5.07;3.80;;;;;;;-1.82;80.22;99936.75;5022700;28;20026;-79
2023/01/28 06:26:50;;;;;;;5.45;3.88;;;;;;;-1.95;79.32;99931.00;5007694;28;20139;-79
2023/01/28 06:29:15;;;;;;;5.95;3.90;;;;;;;-1.64;80.38;99932.44;5008582;28;20071;-80
2023/01/28 06:31:40;;;;;;;4.13;3.72;;;;;;;-1.71;79.89;99936.56;5002541;28;20040;-80
2023/01/28 06:34:07;;;;;;;8.18;3.72;;;;;;;-1.79;79.30;99944.34;4982761;28;20037;-80
2023/01/28 06:36:32;;;;;;;5.35;4.85;;;;;;;-1.36;82.70;99946.34;5008789;28;20473;-79
2023/01/28 06:38:59;;;;;;;6.75;4.88;;;;;;;-1.46;80.07;99942.94;5009477;28;20029;-81
2023/01/28 06:41:24;;;;;;;7.22;4.20;;;;;;;-1.33;80.40;99946.84;5006534;28;20388;-79
2023/01/28 06:43:49;;;;;;;7.22;4.65;;;;;;;-1.30;79.61;99954.44;4991300;28;20025;-80
2023/01/28 06:46:15;;;;;;;7.82;5.30;;;;;;;-1.36;82.30;99952.41;5005811;28;20137;-77
2023/01/28 06:48:40;;;;;;;8.73;4.03;;;;;;;-1.50;79.82;99939.78;5023404;28;20041;-76
2023/01/28 06:51:05;;;;;;;7.20;5.47;;;;;;;-0.83;81.24;99934.16;4988921;28;20370;-79
2023/01/28 06:53:31;;;;;;;6.78;5.07;;;;;;;-0.70;78.95;99955.56;5023473;28;20485;-79
2023/01/28 06:55:56;;;;;;;7.18;3.63;;;;;;;-1.61;78.76;99958.28;5010289;28;20029;-80
2023/01/28 06:58:22;;;;;;;3.95;3.22;;;;;;;-1.51;79.75;99952.03;5005053;28;20111;-79
2023/01/28 07:00:47;;;;;;;8.60;3.30;;;;;;;-1.04;79.72;99944.06;5026916;28;20515;-79
2023/01/28 07:03:12;;;;;;;7.75;3.58;;;;;;;-0.89;80.61;99959.16;5008365;28;20569;-79
2023/01/28 07:05:37;;;;;;;3.38;3.08;;;;;;;-1.34;79.11;99958.31;5007462;28;20386;-79
2023/01/28 07:08:03;;;;;;;4.53;3.50;;;;;;;-0.85;80.45;99954.41;5026027;28;20030;-80
2023/01/28 07:10:29;;;;;;;5.95;3.45;;;;;;;-1.18;80.81;99965.53;4990738;28;21766;-79
2023/01/28 07:12:54;;;;;;;6.93;3.65;;;;;;;-1.30;78.91;99958.84;5028392;28;20037;-79
2023/01/28 07:15:20;;;;;;;5.30;3.65;;;;;;;-0.86;80.42;99951.00;5026893;28;20033;-79
2023/01/28 07:17:45;;;;;;;3.78;2.75;;;;;;;-1.69;78.85;99960.81;5026079;28;20033;-79
2023/01/28 07:20:14;;;;;;;5.78;3.70;;;;;;;-1.21;79.93;99950.94;4995288;28;20021;-79
2023/01/28 07:22:41;;;;;;;14.32;7.30;;;;;;;-0.97;79.26;99955.63;4991527;28;20033;-80
2023/01/28 07:25:07;;;;;;;9.98;4.45;;;;;;;-1.21;78.75;99958.81;5012028;28;20029;-79
2023/01/28 07:27:32;;;;;;;5.13;3.15;;;;;;;-1.27;79.38;99946.31;5019664;28;20109;-79
2023/01/28 07:29:58;;;;;;;7.30;3.05;;;;;;;-1.49;78.11;99948.47;5005562;28;20039;-79
2023/01/28 07:32:25;;;;;;;3.67;2.85;;;;;;;-1.55;78.89;99953.31;4991589;28;20040;-80
2023/01/28 07:34:51;;;;;;;4.45;3.30;;;;;;;-1.28;81.54;99952.50;5006479;28;20079;-79
2023/01/28 07:37:16;;;;;;;7.80;3.35;;;;;;;-1.11;80.78;99956.94;5021816;28;20037;-80
2023/01/28 07:39:42;;;;;;;4.07;3.28;;;;;;;-1.04;79.54;99957.16;4990334;28;20401;-79
2023/01/28 07:42:08;;;;;;;2.88;2.50;;;;;;;-1.42;78.56;99936.44;5022949;28;21095;-80
2023/01/28 07:44:34;;;;;;;3.95;2.75;;;;;;;-1.46;79.23;99946.38;5023928;28;20034;-79
2023/01/28 07:47:00;;;;;;;4.82;2.35;;;;;;;-1.14;81.54;99930.22;5009252;28;20570;-79
2023/01/28 07:49:25;;;;;;;7.72;2.58;;;;;;;-1.07;81.01;99954.88;5027090;28;20029;-79
2023/01/28 07:51:50;;;;;;;3.65;2.85;;;;;;;-0.70;81.38;99958.19;5027447;28;20061;-80
2023/01/28 07:54:16;;;;;;;2.80;2.35;;;;;;;-0.88;78.69;99952.94;4971619;28;20116;-80
2023/01/28 07:56:44;;;;;;;8.15;2.80;;;;;;;-1.33;78.13;99953.91;5008917;28;20029;-80
2023/01/28 07:59:10;;;;;;;8.80;3.20;;;;;;;-0.69;80.85;99962.44;5006025;28;20405;-79
2023/01/28 08:01:35;;;;;;;2.42;2.22;;;;;;;-0.75;77.99;99957.81;5006971;28;20018;-79
2023/01/28 08:04:00;;;;;;;3.10;2.78;;;;;;;-0.91;77.07;99934.06;4988738;28;20561;-79
2023/01/28 08:06:28;;;;;;;9.02;2.90;;;;;;;-1.09;77.35;99957.63;5020857;28;20056;-79
2023/01/28 08:08:54;;;;;;;8.80;2.90;;;;;;;-1.29;77.69;99958.72;4990764;28;20385;-79
2023/01/28 08:11:19;;;;;;;8.05;4.72;;;;;;;-0.98;78.09;99964.44;5002183;28;20038;-80
2023/01/28 08:13:45;;;;;;;20.98;4.82;;;;;;;-1.07;78.16;99965.34;5004261;28;20029;-79
2023/01/28 08:16:10;;;;;;;6.22;3.38;;;;;;;-1.31;77.94;99957.22;5004861;28;20041;-80
2023/01/28 08:18:36;;;;;;;4.80;2.92;;;;;;;-0.69;80.00;99959.81;5001564;28;20389;-79
2023/01/28 08:21:01;;;;;;;5.90;2.70;;;;;;;-1.15;76.88;99949.50;5019651;28;20476;-81
2023/01/28 08:23:27;;;;;;;6.22;3.75;;;;;;;-0.94;77.74;99965.81;5008965;28;20065;-80
2023/01/28 08:25:53;;;;;;;10.15;4.82;;;;;;;-1.20;77.03;99967.50;5017637;28;20029;-81
2023/01/28 08:28:20;;;;;;;3.70;2.58;;;;;;;-1.39;77.40;99971.00;5022452;28;20130;-81
2023/01/28 08:30:46;;;;;;;5.97;4.38;;;;;;;-0.83;78.75;99976.09;5025325;28;20075;-81
2023/01/28 08:33:13;;;;;;;8.10;6.25;;;;;;;-1.03;77.42;99975.38;5022584;28;20030;-80
2023/01/28 08:35:39;;;;;;;2.80;2.60;;;;;;;-1.30;76.27;99974.53;5020098;28;20540;-80
2023/01/28 08:38:05;;;;;;;9.73;7.10;;;;;;;-1.23;77.51;99979.06;4999049;28;20038;-78
2023/01/28 08:40:31;;;;;;;2.85;2.60;;;;;;;-1.57;76.33;99983.19;5015293;28;20030;-80
2023/01/28 08:42:56;;;;;;;4.57;4.20;;;;;;;-1.20;76.92;99975.34;4976260;28;20034;-80
2023/01/28 08:45:24;;;;;;;5.63;2.85;;;;;;;-1.09;77.25;99967.28;5002150;28;20504;-80
2023/01/28 08:47:52;;;;;;;5.57;2.95;;;;;;;-1.09;76.45;99977.78;5015247;28;20079;-80
2023/01/28 08:50:19;;;;;;;6.78;2.10;;;;;;;-1.36;75.79;99978.59;4986134;28;20029;-80
2023/01/28 08:52:46;;;;;;;5.25;2.28;;;;;;;-1.35;75.85;99987.25;5021985;28;20049;-80
2023/01/28 08:55:12;;;;;;;3.75;1.90;;;;;;;-1.16;76.17;99990.63;5007274;28;20515;-80
2023/01/28 08:57:38;;;;;;;2.85;2.15;;;;;;;-1.20;75.09;99996.28;5005865;28;20026;-78
2023/01/28 09:00:05;;;;;;;4.13;1.85;;;;;;;-1.14;76.01;99991.31;5006595;28;20017;-81
2023/01/28 09:02:31;;;;;;;3.35;2.15;;;;;;;-1.02;76.18;100012.84;5004417;28;20025;-78
2023/01/28 09:04:56;;;;;;;1.92;1.50;;;;;;;-0.71;74.53;100016.81;5008402;28;20029;-79
2023/01/28 09:07:22;;;;;;;3.38;1.70;;;;;;;-0.73;75.61;100012.69;5007555;28;20033;-80
2023/01/28 09:09:47;;;;;;;6.43;2.40;;;;;;;-0.14;77.86;100021.63;5006819;28;20032;-79
2023/01/28 09:12:13;;;;;;;3.67;2.40;;;;;;;0.10;75.39;100030.66;5014324;28;20358;-80
2023/01/28 09:14:38;;;;;;;3.00;2.33;;;;;;;-0.29;74.88;100027.56;5005096;28;20065;-78
2023/01/28 09:17:04;;;;;;;3.97;2.25;;;;;;;-0.06;76.75;100023.47;5003468;28;20037;-79
2023/01/28 09:19:29;;;;;;;6.80;3.30;;;;;;;0.53;76.94;100035.88;5005280;28;20152;-79
2023/01/28 09:21:55;;;;;;;4.28;2.88;;;;;;;-0.80;74.12;100018.53;5025663;28;20033;-79
2023/01/28 09:24:20;;;;;;;7.05;2.80;;;;;;;-0.45;77.96;100027.41;5025230;28;20048;-78
2023/01/28 09:26:48;;;;;;;4.25;2.80;;;;;;;0.19;77.48;100032.38;5006765;28;20039;-79
2023/01/28 09:29:14;;;;;;;2.53;1.63;;;;;;;-1.03;74.41;100042.66;5026615;28;20556;-78
2023/01/28 09:31:40;;;;;;;7.90;3.53;;;;;;;-1.00;75.05;100043.19;4994864;28;20136;-79
2023/01/28 09:34:06;;;;;;;3.55;3.05;;;;;;;-0.78;75.35;100052.44;5035293;28;20112;-79
2023/01/28 09:36:31;;;;;;;9.40;4.22;;;;;;;-0.58;76.82;100059.22;5015746;28;20025;-80
2023/01/28 09:38:57;;;;;;;5.95;4.78;;;;;;;-1.16;75.77;100053.47;5001195;28;20033;-80
2023/01/28 09:41:23;;;;;;;96.20;32.60;;;;;;;-0.87;74.09;100061.19;5030767;28;20037;-80
2023/01/28 09:43:59;;;;;;;23.15;8.50;;;;;;;-0.39;75.73;100059.09;5030990;28;20156;-80
2023/01/28 09:46:35;;;;;;;8.32;4.15;;;;;;;-1.70;74.10;100056.81;5010159;28;20056;-78
2023/01/28 09:49:12;;;;;;;6.72;4.47;;;;;;;-1.24;74.86;100065.63;5012901;28;20079;-78
2023/01/28 09:51:51;;;;;;;11.35;7.85;;;;;;;-1.29;74.89;100054.78;5008247;28;20037;-78
2023/01/28 09:54:39;;;;;;;7.78;4.13;;;;;;;-1.28;74.16;100057.22;5017907;28;20389;-79
2023/01/28 09:57:16;;;;;;;4.95;4.55;;;;;;;-1.24;74.33;100063.84;5023880;28;20493;-79
2023/01/28 09:59:41;;;;;;;4.93;3.25;;;;;;;-1.53;73.76;100066.53;5021109;28;20505;-78
2023/01/28 10:02:26;;;;;;;6.15;5.10;;;;;;;-1.74;74.33;100065.91;5007432;28;20033;-78
2023/01/28 10:04:58;;;;;;;6.28;3.40;;;;;;;-1.71;74.54;100072.66;5008190;28;20025;-81
2023/01/28 10:07:43;;;;;;;5.10;3.75;;;;;;;-1.78;74.97;100082.84;5008335;28;20572;-80
2023/01/28 10:10:16;;;;;;;5.72;3.15;;;;;;;-1.65;74.32;100077.31;5002522;28;20515;-79
2023/01/28 10:13:12;;;;;;;11.30;4.72;;;;;;;-1.52;75.22;100078.66;5010415;28;20523;-79
2023/01/28 10:15:55;;;;;;;19.25;5.72;;;;;;;-1.34;74.28;100075.31;5023082;28;20031;-79
2023/01/28 10:18:33;;;;;;;5.25;3.22;;;;;;;-0.98;76.50;100083.16;5020556;28;20045;-80
2023/01/28 10:21:09;;;;;;;5.35;3.47;;;;;;;-1.43;73.59;100073.53;5009423;28;20029;-80
2023/01/28 10:23:51;;;;;;;4.60;3.30;;;;;;;-1.34;74.03;100070.91;5028928;28;20061;-79
2023/01/28 10:26:24;;;;;;;5.68;3.13;;;;;;;-1.32;74.26;100070.75;5005040;28;20029;-79
2023/01/28 10:28:56;;;;;;;5.95;4.07;;;;;;;-0.95;76.99;100056.69;5022583;28;20112;-79
2023/01/28 10:31:27;;;;;;;8.55;4.53;;;;;;;-0.41;77.04;100057.59;4992918;28;20030;-80
2023/01/28 10:33:53;;;;;;;4.25;3.53;;;;;;;-0.52;76.94;100063.88;5007852;28;20030;-79
2023/01/28 10:36:19;;;;;;;9.07;3.70;;;;;;;-0.56;73.56;100069.56;5007613;28;20045;-80
2023/01/28 10:38:44;;;;;;;4.43;3.42;;;;;;;-0.44;73.49;100065.78;5010618;28;20040;-79
2023/01/28 10:41:16;;;;;;;3.58;3.08;;;;;;;-0.28;73.15;100072.00;5005388;28;20428;-80
2023/01/28 10:43:41;;;;;;;8.18;3.95;;;;;;;-0.39;75.19;100061.72;5027910;28;20397;-78
2023/01/28 10:46:13;;;;;;;3.90;3.47;;;;;;;-0.36;73.67;100063.22;5016031;28;20035;-80
2023/01/28 10:48:47;;;;;;;4.22;3.22;;;;;;;-0.52;71.88;100063.88;5007829;28;20044;-79
2023/01/28 10:51:14;;;;;;;5.68;2.83;;;;;;;0.12;74.49;100062.81;5024605;28;20029;-81
2023/01/28 10:53:44;;;;;;;3.85;2.67;;;;;;;-0.33;71.12;100050.63;5026914;28;20040;-79
2023/01/28 10:56:34;;;;;;;3.67;3.38;;;;;;;-0.40;72.19;100062.72;5015254;28;20045;-79
2023/01/28 10:59:03;;;;;;;4.00;3.20;;;;;;;-0.22;72.69;100060.09;4996735;28;20038;-79
2023/01/28 11:01:46;;;;;;;4.32;3.75;;;;;;;-0.31;74.16;100063.59;5033024;28;20018;-79
2023/01/28 11:04:17;;;;;;;4.05;3.28;;;;;;;-0.66;72.45;100053.91;5013341;28;20100;-79
2023/01/28 11:06:51;;;;;;;13.13;3.83;;;;;;;-1.07;73.89;100051.78;5031698;28;20023;-79
2023/01/28 11:09:22;;;;;;;6.57;3.85;;;;;;;-0.83;72.89;100062.56;5020459;28;20392;-80
2023/01/28 11:11:47;;;;;;;9.13;2.85;;;;;;;-0.87;73.91;100045.47;5039984;28;20061;-81
2023/01/28 11:14:25;;;;;;;6.10;3.45;;;;;;;-0.97;73.09;100057.78;5015633;28;20113;-81
2023/01/28 11:16:53;;;;;;;4.60;3.45;;;;;;;-0.54;74.99;100044.84;5016725;28;20045;-81
2023/01/28 11:19:24;;;;;;;6.40;3.63;;;;;;;-0.36;73.51;100052.72;5026340;28;20025;-81
2023/01/28 11:21:55;;;;;;;5.18;4.03;;;;;;;-0.33;73.61;100040.13;5019455;28;20020;-79
2023/01/28 11:24:25;;;;;;;8.95;5.15;;;;;;;-0.61;73.51;100054.28;5015029;28;20053;-80
2023/01/28 11:26:54;;;;;;;7.80;3.97;;;;;;;-1.00;73.66;100039.72;5013549;28;20043;-80
2023/01/28 11:29:31;;;;;;;5.57;3.60;;;;;;;-1.10;72.97;100046.81;4998900;28;20037;-81
2023/01/28 11:31:58;;;;;;;7.80;4.22;;;;;;;0.15;77.39;100037.13;5028709;28;20026;-81
2023/01/28 11:34:27;;;;;;;7.97;4.72;;;;;;;0.83;75.52;100042.47;5018103;28;20103;-81
2023/01/28 11:37:15;;;;;;;10.68;5.65;;;;;;;0.02;72.19;100031.44;5016473;28;20563;-82
2023/01/28 11:39:41;;;;;;;6.80;5.07;;;;;;;-0.33;73.16;100027.00;5009641;28;20665;-81
2023/01/28 11:42:17;;;;;;;6.43;4.32;;;;;;;0.20;75.25;100023.53;5012494;28;20041;-81
2023/01/28 11:44:43;;;;;;;6.43;5.65;;;;;;;-0.17;72.43;100021.91;5012283;28;20029;-80
2023/01/28 11:47:45;;;;;;;6.13;4.97;;;;;;;-0.15;71.77;100024.38;5026836;28;20021;-81
2023/01/28 11:50:16;;;;;;;7.32;5.63;;;;;;;-0.62;72.47;100026.41;5025755;28;20026;-80
2023/01/28 11:53:17;;;;;;;5.78;5.18;;;;;;;-0.56;72.56;100023.19;5031337;28;20056;-79
2023/01/28 11:55:45;;;;;;;9.77;5.35;;;;;;;-0.42;71.94;100025.31;4964281;28;20069;-79
2023/01/28 11:58:51;;;;;;;7.95;6.82;;;;;;;-0.45;73.77;100033.47;5012007;28;20091;-79
2023/01/28 12:01:32;;;;;;;7.65;6.35;;;;;;;0.43;75.68;100040.41;5013385;28;20055;-80
2023/01/28 12:04:19;;;;;;;8.00;5.68;;;;;;;-0.27;71.59;100033.47;5029860;28;20033;-80
2023/01/28 12:07:00;;;;;;;6.97;5.45;;;;;;;0.11;71.79;100035.75;5029272;28;20033;-81
2023/01/28 12:09:46;;;;;;;7.68;6.10;;;;;;;1.14;76.18;100039.13;5030232;28;20599;-80
2023/01/28 12:12:33;;;;;;;6.57;5.53;;;;;;;0.22;71.46;100043.38;5017833;28;20493;-80
2023/01/28 12:15:20;;;;;;;7.80;5.80;;;;;;;-0.12;72.87;100045.09;5009037;28;20500;-81